Time;durP1;ratioP1;P1;durP2;ratioP2;P2;SDS_P1;SDS_P2;PMS_P1;PMS_P2;Temp;Humidity;BMP_temperature;BMP_pressure;BME280_temperature;BME280_humidity;BME280_pressure;Samples;Min_cycle;Max_cycle;Signal;HPM_P1;HPM_P2
2023/07/20 00:01:22;;;;;;;0.30;0.30;;;;;;;;;;5092613;28;20467;-75
2023/07/20 00:03:54;;;;;;;0.28;0.28;;;;;;;;;;5092697;28;20094;-74
2023/07/20 00:06:20;;;;;;;0.20;0.20;;;;;;;;;;5092796;28;20036;-74
2023/07/20 00:08:45;;;;;;;0.30;0.30;;;;;;;;;;5092528;28;20039;-74
2023/07/20 00:11:13;;;;;;;0.20;0.20;;;;;;;;;;5092663;28;20036;-75
2023/07/20 00:13:38;;;;;;;0.20;0.20;;;;;;;;;;5092837;28;20046;-75
2023/07/20 00:16:04;;;;;;;0.30;0.30;;;;;;;;;;5074616;28;20921;-74
2023/07/20 00:18:29;;;;;;;0.35;0.35;;;;;;;;;;5092660;28;20463;-72
2023/07/20 00:20:55;;;;;;;0.70;0.70;;;;;;;;;;5092384;28;20047;-75
2023/07/20 00:23:22;;;;;;;0.20;0.20;;;;;;;;;;5092866;28;20043;-73
2023/07/20 00:25:48;;;;;;;0.40;0.40;;;;;;;;;;5092402;28;20540;-74
2023/07/20 00:28:13;;;;;;;0.10;0.10;;;;;;;;;;5092482;28;20063;-74
2023/07/20 00:30:40;;;;;;;0.20;0.20;;;;;;;;;;5074303;28;20044;-74
2023/07/20 00:33:07;;;;;;;0.20;0.20;;;;;;;;;;5092402;28;20028;-74
2023/07/20 00:35:33;;;;;;;0.20;0.20;;;;;;;;;;5092305;28;20437;-74
2023/07/20 00:37:58;;;;;;;0.22;0.22;;;;;;;;;;5073939;28;20406;-74
2023/07/20 00:40:24;;;;;;;0.20;0.20;;;;;;;;;;5074889;28;20040;-74
2023/07/20 00:42:49;;;;;;;0.20;0.20;;;;;;;;;;5075866;28;20115;-74
2023/07/20 00:45:20;;;;;;;0.20;0.20;;;;;;;;;;5077840;28;20054;-74
2023/07/20 00:47:46;;;;;;;0.20;0.20;;;;;;;;;;5095809;28;20374;-74
2023/07/20 00:50:13;;;;;;;0.25;0.25;;;;;;;;;;5095720;28;20097;-73
2023/07/20 00:52:41;;;;;;;0.20;0.20;;;;;;;;;;5095539;28;20409;-73
2023/07/20 00:55:07;;;;;;;0.20;0.20;;;;;;;;;;5095748;28;20103;-73
2023/07/20 00:57:33;;;;;;;0.20;0.20;;;;;;;;;;5077461;28;20028;-72
2023/07/20 00:59:58;;;;;;;0.20;0.20;;;;;;;;;;5077434;28;20138;-73
2023/07/20 01:02:24;;;;;;;0.20;0.20;;;;;;;;;;5078647;28;20024;-73
2023/07/20 01:04:49;;;;;;;0.65;0.65;;;;;;;;;;5077357;28;20051;-73
2023/07/20 01:07:25;;;;;;;0.20;0.20;;;;;;;;;;5095849;28;20032;-73
2023/07/20 01:10:10;;;;;;;0.20;0.20;;;;;;;;;;5095361;28;20036;-73
2023/07/20 01:12:41;;;;;;;0.20;0.20;;;;;;;;;;5096095;28;20378;-74
2023/07/20 01:15:07;;;;;;;0.20;0.20;;;;;;;;;;5078359;28;20067;-74
2023/07/20 01:17:33;;;;;;;0.30;0.30;;;;;;;;;;5076898;28;20383;-74
2023/07/20 01:19:59;;;;;;;0.70;0.70;;;;;;;;;;5077603;28;20048;-74
2023/07/20 01:22:44;;;;;;;0.20;0.20;;;;;;;;;;5060543;28;20107;-75
2023/07/20 01:25:09;;;;;;;0.30;0.30;;;;;;;;;;5095342;28;20032;-74
2023/07/20 01:27:41;;;;;;;0.20;0.20;;;;;;;;;;5077036;28;20028;-74
2023/07/20 01:30:18;;;;;;;0.17;0.17;;;;;;;;;;5076813;28;20028;-75
2023/07/20 01:32:44;;;;;;;0.20;0.20;;;;;;;;;;5095216;28;20032;-74
2023/07/20 01:35:14;;;;;;;0.57;0.57;;;;;;;;;;5109593;28;20064;-74
2023/07/20 01:37:40;;;;;;;0.30;0.30;;;;;;;;;;5115441;28;20023;-73
2023/07/20 01:40:08;;;;;;;0.20;0.20;;;;;;;;;;5081472;28;20036;-75
2023/07/20 01:42:34;;;;;;;0.22;0.22;;;;;;;;;;5076667;28;20501;-74
2023/07/20 01:44:59;;;;;;;0.20;0.20;;;;;;;;;;5076656;28;20028;-73
2023/07/20 01:47:25;;;;;;;0.20;0.20;;;;;;;;;;5094828;28;20466;-73
2023/07/20 01:49:50;;;;;;;0.20;0.20;;;;;;;;;;5077460;28;20036;-73
2023/07/20 01:52:16;;;;;;;0.20;0.20;;;;;;;;;;5094794;28;20028;-73
2023/07/20 01:54:41;;;;;;;0.20;0.20;;;;;;;;;;5076150;28;20032;-73
2023/07/20 01:57:06;;;;;;;0.20;0.20;;;;;;;;;;5076313;28;20032;-73
2023/07/20 01:59:32;;;;;;;0.20;0.20;;;;;;;;;;5076259;28;20036;-73
2023/07/20 02:01:57;;;;;;;0.20;0.20;;;;;;;;;;5094545;28;20207;-74
2023/07/20 02:04:23;;;;;;;0.20;0.20;;;;;;;;;;5076636;28;20032;-74
2023/07/20 02:10:17;;;;;;;0.20;0.20;;;;;;;;;;5089294;28;20047;-73
2023/07/20 02:12:43;;;;;;;0.20;0.20;;;;;;;;;;5090432;28;20039;-74
2023/07/20 02:15:08;;;;;;;0.32;0.32;;;;;;;;;;5075048;28;20025;-73
2023/07/20 02:17:34;;;;;;;0.20;0.20;;;;;;;;;;5076139;28;20169;-73
2023/07/20 02:20:00;;;;;;;0.10;0.10;;;;;;;;;;5076309;28;20126;-73
2023/07/20 02:22:25;;;;;;;0.20;0.20;;;;;;;;;;5076402;28;20463;-73
2023/07/20 02:24:51;;;;;;;0.20;0.20;;;;;;;;;;5059583;28;20469;-73
2023/07/20 02:27:16;;;;;;;0.20;0.20;;;;;;;;;;5094342;28;20030;-73
2023/07/20 02:29:42;;;;;;;0.20;0.20;;;;;;;;;;5076126;28;20544;-72
2023/07/20 02:32:10;;;;;;;0.30;0.30;;;;;;;;;;5094188;28;20085;-72
2023/07/20 02:34:36;;;;;;;0.20;0.20;;;;;;;;;;5059410;28;20063;-73
2023/07/20 02:37:02;;;;;;;0.20;0.20;;;;;;;;;;5094054;28;20072;-73
2023/07/20 02:39:28;;;;;;;0.20;0.20;;;;;;;;;;5075884;28;20032;-73
2023/07/20 02:41:53;;;;;;;0.20;0.20;;;;;;;;;;5093934;28;20028;-73
2023/07/20 02:44:19;;;;;;;0.20;0.20;;;;;;;;;;5075635;28;20039;-73
2023/07/20 02:46:44;;;;;;;0.20;0.20;;;;;;;;;;5093795;28;20097;-73
2023/07/20 02:49:10;;;;;;;0.30;0.30;;;;;;;;;;5059032;28;20054;-73
2023/07/20 02:51:35;;;;;;;0.20;0.20;;;;;;;;;;5094154;28;20446;-73
2023/07/20 02:54:01;;;;;;;0.95;0.88;;;;;;;;;;5075543;28;20039;-73
2023/07/20 02:56:26;;;;;;;0.52;0.52;;;;;;;;;;5075680;28;20036;-72
2023/07/20 02:58:52;;;;;;;0.20;0.20;;;;;;;;;;5075524;28;20039;-72
2023/07/20 03:01:18;;;;;;;0.30;0.30;;;;;;;;;;5093675;28;20107;-73
2023/07/20 03:03:46;;;;;;;0.20;0.20;;;;;;;;;;5089093;28;20055;-72
2023/07/20 03:06:15;;;;;;;0.20;0.20;;;;;;;;;;5070706;28;20044;-73
2023/07/20 03:08:41;;;;;;;0.20;0.20;;;;;;;;;;5071154;28;20039;-73
2023/07/20 03:11:07;;;;;;;0.28;0.28;;;;;;;;;;5089582;28;20039;-73
2023/07/20 03:13:33;;;;;;;0.20;0.20;;;;;;;;;;5089920;28;20467;-72
2023/07/20 03:15:59;;;;;;;0.20;0.20;;;;;;;;;;5060013;28;20035;-72
2023/07/20 03:18:24;;;;;;;0.20;0.20;;;;;;;;;;5071339;28;20107;-72
2023/07/20 03:20:50;;;;;;;0.20;0.20;;;;;;;;;;5089112;28;20047;-72
2023/07/20 03:23:16;;;;;;;0.20;0.20;;;;;;;;;;5071630;28;20028;-74
2023/07/20 03:25:42;;;;;;;0.20;0.20;;;;;;;;;;5089902;28;20122;-72
2023/07/20 03:28:07;;;;;;;0.10;0.10;;;;;;;;;;5071323;28;20123;-72
2023/07/20 03:30:33;;;;;;;0.25;0.25;;;;;;;;;;5088825;28;20028;-72
2023/07/20 03:32:59;;;;;;;0.20;0.20;;;;;;;;;;5070925;28;20036;-72
2023/07/20 03:35:24;;;;;;;0.20;0.20;;;;;;;;;;5089290;28;20031;-72
2023/07/20 03:37:50;;;;;;;0.20;0.20;;;;;;;;;;5088746;28;20028;-72
2023/07/20 03:40:16;;;;;;;0.20;0.20;;;;;;;;;;5089271;28;20060;-72
2023/07/20 03:42:41;;;;;;;0.20;0.20;;;;;;;;;;5070742;28;20028;-72
2023/07/20 03:45:07;;;;;;;0.20;0.20;;;;;;;;;;5073122;28;20081;-73
2023/07/20 03:47:32;;;;;;;0.20;0.20;;;;;;;;;;5093550;28;20087;-73
2023/07/20 03:49:58;;;;;;;0.20;0.20;;;;;;;;;;5093714;28;20044;-72
2023/07/20 03:52:24;;;;;;;0.20;0.20;;;;;;;;;;5089991;28;20040;-73
2023/07/20 03:54:51;;;;;;;0.20;0.20;;;;;;;;;;5088795;28;20032;-73
2023/07/20 03:57:16;;;;;;;0.20;0.20;;;;;;;;;;5070638;28;20118;-73
2023/07/20 03:59:44;;;;;;;0.20;0.20;;;;;;;;;;5095594;28;20123;-73
2023/07/20 04:02:10;;;;;;;0.43;0.43;;;;;;;;;;5091455;28;20646;-72
2023/07/20 04:04:35;;;;;;;0.30;0.30;;;;;;;;;;5070073;28;20127;-72
2023/07/20 04:07:01;;;;;;;0.52;0.52;;;;;;;;;;5088585;28;20383;-73
2023/07/20 04:09:26;;;;;;;0.20;0.20;;;;;;;;;;5071332;28;20036;-72
2023/07/20 04:11:52;;;;;;;0.20;0.20;;;;;;;;;;5070337;28;20035;-73
2023/07/20 04:14:17;;;;;;;0.10;0.10;;;;;;;;;;5088514;28;20032;-73
2023/07/20 04:16:42;;;;;;;0.20;0.20;;;;;;;;;;5089815;28;20485;-73
2023/07/20 04:19:08;;;;;;;0.20;0.20;;;;;;;;;;5074201;28;20032;-73
2023/07/20 04:21:39;;;;;;;0.15;0.15;;;;;;;;;;5091920;28;20111;-73
2023/07/20 04:24:04;;;;;;;0.20;0.20;;;;;;;;;;5092177;28;20538;-73
2023/07/20 04:26:30;;;;;;;0.20;0.20;;;;;;;;;;5074605;28;20024;-73
2023/07/20 04:28:55;;;;;;;0.20;0.20;;;;;;;;;;5091959;28;20036;-73
2023/07/20 04:31:50;;;;;;;0.20;0.20;;;;;;;;;;5074407;28;20043;-73
2023/07/20 04:34:16;;;;;;;0.20;0.20;;;;;;;;;;5073857;28;20032;-71
2023/07/20 04:36:41;;;;;;;0.20;0.20;;;;;;;;;;5092513;28;20039;-72
2023/07/20 04:39:08;;;;;;;0.20;0.20;;;;;;;;;;5091819;28;20371;-73
2023/07/20 04:41:38;;;;;;;0.20;0.20;;;;;;;;;;5073904;28;20043;-73
2023/07/20 04:44:03;;;;;;;0.20;0.20;;;;;;;;;;5073618;28;20032;-72
2023/07/20 04:46:30;;;;;;;0.20;0.20;;;;;;;;;;5074690;28;20036;-71
2023/07/20 04:48:57;;;;;;;0.20;0.20;;;;;;;;;;5073787;28;20028;-71
2023/07/20 04:51:23;;;;;;;0.20;0.20;;;;;;;;;;5087998;28;20050;-72
2023/07/20 04:53:52;;;;;;;0.30;0.30;;;;;;;;;;5093886;28;20031;-72
2023/07/20 04:56:17;;;;;;;0.25;0.25;;;;;;;;;;5105030;28;20677;-72
2023/07/20 04:58:45;;;;;;;0.20;0.20;;;;;;;;;;5074995;28;20034;-72
2023/07/20 05:01:11;;;;;;;0.30;0.30;;;;;;;;;;5070914;28;20646;-72
2023/07/20 05:03:37;;;;;;;0.40;0.40;;;;;;;;;;5073237;28;20032;-72
2023/07/20 05:06:03;;;;;;;0.52;0.52;;;;;;;;;;5077346;28;20077;-72
2023/07/20 05:08:29;;;;;;;0.20;0.20;;;;;;;;;;5079367;28;20031;-73
2023/07/20 05:10:55;;;;;;;0.30;0.30;;;;;;;;;;5087019;28;20035;-73
2023/07/20 05:13:20;;;;;;;0.22;0.22;;;;;;;;;;5076472;28;20390;-73
2023/07/20 05:15:46;;;;;;;0.20;0.20;;;;;;;;;;5074087;28;20451;-73
2023/07/20 05:18:19;;;;;;;0.20;0.20;;;;;;;;;;5073355;28;20532;-74
2023/07/20 05:20:48;;;;;;;0.47;0.47;;;;;;;;;;5074377;28;20036;-72
2023/07/20 05:23:14;;;;;;;0.30;0.30;;;;;;;;;;5081850;28;20118;-73
2023/07/20 05:25:40;;;;;;;0.20;0.20;;;;;;;;;;5074069;28;20123;-73
2023/07/20 05:28:06;;;;;;;0.20;0.20;;;;;;;;;;5100182;28;20108;-75
2023/07/20 05:30:31;;;;;;;0.30;0.30;;;;;;;;;;5101400;28;20463;-74
2023/07/20 05:32:56;;;;;;;0.30;0.30;;;;;;;;;;5073767;28;20044;-73
2023/07/20 05:35:22;;;;;;;0.50;0.50;;;;;;;;;;5079838;28;20123;-74
2023/07/20 05:37:48;;;;;;;0.22;0.22;;;;;;;;;;5101174;28;20032;-73
2023/07/20 05:40:18;;;;;;;0.30;0.30;;;;;;;;;;5090999;28;20071;-73
2023/07/20 05:42:43;;;;;;;0.20;0.20;;;;;;;;;;5090902;28;20028;-72
2023/07/20 05:45:09;;;;;;;0.28;0.28;;;;;;;;;;5091400;28;20356;-72
2023/07/20 05:47:34;;;;;;;0.40;0.40;;;;;;;;;;5091177;28;20599;-72
2023/07/20 05:50:00;;;;;;;0.28;0.28;;;;;;;;;;5093426;28;20051;-72
2023/07/20 05:52:25;;;;;;;0.30;0.30;;;;;;;;;;5105145;28;20031;-73
2023/07/20 05:54:51;;;;;;;0.30;0.30;;;;;;;;;;5106945;28;20390;-72
2023/07/20 05:57:16;;;;;;;0.30;0.30;;;;;;;;;;5092502;28;20073;-73
2023/07/20 05:59:44;;;;;;;0.30;0.30;;;;;;;;;;5110599;28;20063;-72
2023/07/20 06:02:10;;;;;;;0.30;0.30;;;;;;;;;;5097175;28;20036;-73
2023/07/20 06:04:35;;;;;;;1.50;1.45;;;;;;;;;;5099534;28;20563;-74
2023/07/20 06:07:00;;;;;;;0.30;0.30;;;;;;;;;;5102283;28;20063;-73
2023/07/20 06:09:27;;;;;;;0.30;0.30;;;;;;;;;;5091211;28;20082;-72
2023/07/20 06:11:52;;;;;;;0.40;0.40;;;;;;;;;;5091210;28;20020;-73
2023/07/20 06:14:18;;;;;;;0.30;0.30;;;;;;;;;;5090887;28;20034;-74
2023/07/20 06:16:43;;;;;;;2.85;1.73;;;;;;;;;;5087598;28;20065;-73
2023/07/20 06:19:12;;;;;;;0.63;0.63;;;;;;;;;;5090834;28;20088;-72
2023/07/20 06:21:37;;;;;;;0.45;0.45;;;;;;;;;;5090177;28;20111;-71
2023/07/20 06:24:03;;;;;;;3.92;1.42;;;;;;;;;;5090828;28;20131;-72
2023/07/20 06:26:29;;;;;;;0.60;0.60;;;;;;;;;;5090523;28;20078;-70
2023/07/20 06:28:55;;;;;;;0.80;0.80;;;;;;;;;;5072219;28;20038;-71
2023/07/20 06:31:21;;;;;;;0.40;0.40;;;;;;;;;;5090432;28;20040;-72
2023/07/20 06:33:46;;;;;;;1.88;1.67;;;;;;;;;;5073925;28;20028;-74
2023/07/20 06:36:12;;;;;;;0.40;0.40;;;;;;;;;;5089608;28;20438;-72
2023/07/20 06:38:38;;;;;;;1.42;0.77;;;;;;;;;;5100388;28;20027;-72
2023/07/20 06:41:04;;;;;;;3.80;2.15;;;;;;;;;;5093889;28;20383;-72
2023/07/20 06:43:29;;;;;;;0.80;0.80;;;;;;;;;;5105805;28;20035;-72
2023/07/20 06:45:55;;;;;;;6.40;2.95;;;;;;;;;;5102570;28;20031;-72
2023/07/20 06:48:21;;;;;;;3.60;3.30;;;;;;;;;;5089313;28;20032;-72
2023/07/20 06:50:46;;;;;;;2.97;1.85;;;;;;;;;;5100106;28;20047;-73
2023/07/20 06:53:11;;;;;;;0.68;0.68;;;;;;;;;;5102621;28;20395;-72
2023/07/20 06:55:37;;;;;;;6.63;0.93;;;;;;;;;;5109970;28;20047;-73
2023/07/20 06:58:02;;;;;;;2.83;2.25;;;;;;;;;;5091281;28;20032;-70
2023/07/20 07:00:28;;;;;;;0.32;0.32;;;;;;;;;;5104008;28;20398;-71
2023/07/20 07:02:53;;;;;;;0.40;0.40;;;;;;;;;;5098108;28;20466;-72
2023/07/20 07:05:19;;;;;;;2.28;1.10;;;;;;;;;;5090078;28;20395;-73
2023/07/20 07:07:44;;;;;;;0.40;0.40;;;;;;;;;;5087436;28;20137;-72
2023/07/20 07:10:10;;;;;;;0.43;0.43;;;;;;;;;;5096617;28;20036;-73
2023/07/20 07:12:36;;;;;;;4.07;1.67;;;;;;;;;;5107108;28;20066;-72
2023/07/20 07:15:06;;;;;;;0.68;0.68;;;;;;;;;;5107508;28;20123;-72
2023/07/20 07:17:32;;;;;;;2.60;2.20;;;;;;;;;;5104131;28;20239;-73
2023/07/20 07:19:58;;;;;;;3.60;1.85;;;;;;;;;;5098482;28;20044;-73
2023/07/20 07:22:23;;;;;;;0.50;0.50;;;;;;;;;;5101257;28;20020;-72
2023/07/20 07:24:49;;;;;;;0.40;0.40;;;;;;;;;;5080571;28;20383;-73
2023/07/20 07:27:17;;;;;;;4.53;2.53;;;;;;;;;;5093204;28;20482;-73
2023/07/20 07:29:46;;;;;;;1.00;0.97;;;;;;;;;;5088989;28;20103;-73
2023/07/20 07:32:11;;;;;;;1.75;1.60;;;;;;;;;;5071559;28;20032;-73
2023/07/20 07:34:37;;;;;;;0.70;0.70;;;;;;;;;;5085587;28;20110;-72
2023/07/20 07:37:03;;;;;;;0.47;0.47;;;;;;;;;;5072890;28;20044;-73
2023/07/20 07:39:29;;;;;;;0.30;0.30;;;;;;;;;;5106984;28;20435;-73
2023/07/20 07:41:55;;;;;;;0.98;0.80;;;;;;;;;;5097138;28;20414;-73
2023/07/20 07:44:21;;;;;;;2.28;1.20;;;;;;;;;;5093010;28;20028;-73
2023/07/20 07:46:46;;;;;;;1.33;0.88;;;;;;;;;;5088488;28;20039;-72
2023/07/20 07:49:12;;;;;;;3.75;2.03;;;;;;;;;;5092164;28;20036;-72
2023/07/20 07:51:38;;;;;;;8.45;4.88;;;;;;;;;;5092098;28;20039;-73
2023/07/20 07:54:04;;;;;;;0.35;0.35;;;;;;;;;;5088378;28;20445;-73
2023/07/20 07:56:29;;;;;;;0.40;0.40;;;;;;;;;;5088239;28;20111;-73
2023/07/20 07:58:55;;;;;;;0.38;0.38;;;;;;;;;;5089345;28;20032;-72
2023/07/20 08:01:22;;;;;;;2.40;1.27;;;;;;;;;;5079193;28;20487;-72
2023/07/20 08:03:47;;;;;;;0.40;0.40;;;;;;;;;;5088357;28;20443;-73
2023/07/20 08:06:15;;;;;;;1.75;1.52;;;;;;;;;;5081826;28;20067;-74
2023/07/20 08:08:42;;;;;;;1.00;0.88;;;;;;;;;;5075076;28;20131;-72
2023/07/20 08:11:08;;;;;;;2.10;1.35;;;;;;;;;;5075184;28;20371;-73
2023/07/20 08:13:33;;;;;;;0.40;0.40;;;;;;;;;;5068977;28;20067;-73
2023/07/20 08:16:02;;;;;;;3.72;2.70;;;;;;;;;;5069040;28;20103;-73
2023/07/20 08:18:27;;;;;;;9.68;3.72;;;;;;;;;;5068245;28;20318;-72
2023/07/20 08:20:53;;;;;;;11.52;5.18;;;;;;;;;;5071430;28;20107;-73
2023/07/20 08:23:18;;;;;;;7.13;2.40;;;;;;;;;;5076754;28;20028;-72
2023/07/20 08:25:43;;;;;;;0.35;0.35;;;;;;;;;;5086576;28;20039;-73
2023/07/20 08:28:16;;;;;;;2.22;1.52;;;;;;;;;;5074146;28;20037;-74
2023/07/20 08:30:45;;;;;;;6.75;3.47;;;;;;;;;;5070253;28;20760;-74
2023/07/20 08:33:12;;;;;;;1.75;1.15;;;;;;;;;;5082259;28;20058;-74
2023/07/20 08:35:38;;;;;;;4.47;1.50;;;;;;;;;;5077390;28;20418;-74
2023/07/20 08:38:04;;;;;;;0.88;0.88;;;;;;;;;;5068333;28;20033;-74
2023/07/20 08:40:31;;;;;;;0.70;0.70;;;;;;;;;;5076712;28;20036;-72
2023/07/20 08:42:57;;;;;;;3.60;1.95;;;;;;;;;;5082268;28;20048;-74
2023/07/20 08:45:25;;;;;;;12.50;4.82;;;;;;;;;;5073751;28;20029;-74
2023/07/20 08:47:51;;;;;;;5.13;2.92;;;;;;;;;;5073196;28;20452;-74
2023/07/20 08:50:16;;;;;;;8.35;5.65;;;;;;;;;;5049878;28;20384;-73
2023/07/20 08:52:41;;;;;;;0.73;0.73;;;;;;;;;;5067363;28;20044;-74
2023/07/20 08:55:07;;;;;;;10.82;4.40;;;;;;;;;;5067361;28;20387;-73
2023/07/20 08:57:33;;;;;;;2.63;2.22;;;;;;;;;;5067407;28;20036;-73
2023/07/20 09:00:00;;;;;;;0.40;0.40;;;;;;;;;;5067337;28;20513;-74
2023/07/20 09:02:26;;;;;;;0.60;0.60;;;;;;;;;;5068442;28;20044;-74
2023/07/20 09:04:52;;;;;;;8.13;3.75;;;;;;;;;;5071121;28;20036;-74
2023/07/20 09:07:19;;;;;;;11.80;4.88;;;;;;;;;;5070629;28;20032;-74
2023/07/20 09:09:45;;;;;;;0.70;0.70;;;;;;;;;;5070794;28;20029;-74
2023/07/20 09:12:14;;;;;;;2.58;2.03;;;;;;;;;;5070630;28;20040;-73
2023/07/20 09:14:42;;;;;;;0.95;0.93;;;;;;;;;;5065565;28;20402;-74
2023/07/20 09:17:12;;;;;;;2.85;2.00;;;;;;;;;;5090936;28;20361;-73
2023/07/20 09:19:37;;;;;;;9.52;4.18;;;;;;;;;;5090927;28;20441;-74
2023/07/20 09:22:05;;;;;;;11.30;5.65;;;;;;;;;;5091067;28;20044;-74
2023/07/20 09:24:31;;;;;;;11.52;4.15;;;;;;;;;;5090378;28;20485;-75
2023/07/20 09:26:57;;;;;;;0.85;0.82;;;;;;;;;;5090499;28;20066;-74
2023/07/20 09:29:22;;;;;;;0.90;0.90;;;;;;;;;;5089798;28;20036;-75
2023/07/20 09:32:01;;;;;;;9.50;2.67;;;;;;;;;;5068361;28;20040;-73
2023/07/20 09:34:27;;;;;;;4.97;3.33;;;;;;;;;;5078875;28;20024;-73
2023/07/20 09:36:53;;;;;;;7.05;2.63;;;;;;;;;;5086806;28;20040;-74
2023/07/20 09:39:18;;;;;;;1.08;1.00;;;;;;;;;;5088246;28;20137;-72
2023/07/20 09:41:44;;;;;;;2.58;1.88;;;;;;;;;;5070031;28;20032;-74
2023/07/20 09:44:10;;;;;;;7.15;2.67;;;;;;;;;;5053961;28;20055;-74
2023/07/20 09:46:48;;;;;;;5.72;3.10;;;;;;;;;;5070645;28;20365;-73
2023/07/20 09:49:14;;;;;;;4.97;3.15;;;;;;;;;;5069601;28;20028;-75
2023/07/20 09:51:39;;;;;;;0.50;0.50;;;;;;;;;;5070203;28;20033;-74
2023/07/20 09:54:05;;;;;;;1.45;1.35;;;;;;;;;;5068944;28;20043;-74
2023/07/20 09:56:30;;;;;;;5.60;3.88;;;;;;;;;;5068622;28;20036;-74
2023/07/20 09:58:56;;;;;;;15.27;4.93;;;;;;;;;;5069793;28;20016;-74
2023/07/20 10:01:22;;;;;;;0.82;0.82;;;;;;;;;;5063407;28;20047;-75
2023/07/20 10:03:49;;;;;;;0.75;0.75;;;;;;;;;;5090403;28;20094;-74
2023/07/20 10:06:15;;;;;;;3.30;2.05;;;;;;;;;;5090101;28;20032;-74
2023/07/20 10:08:41;;;;;;;2.72;1.92;;;;;;;;;;5071713;28;20032;-74
2023/07/20 10:11:07;;;;;;;5.13;2.40;;;;;;;;;;5089807;28;20028;-73
2023/07/20 10:13:36;;;;;;;6.18;2.63;;;;;;;;;;5089962;28;20613;-75
2023/07/20 10:16:03;;;;;;;1.85;1.00;;;;;;;;;;5089919;28;20085;-73
2023/07/20 10:18:37;;;;;;;5.20;2.03;;;;;;;;;;5090217;28;20016;-75
2023/07/20 10:21:05;;;;;;;6.90;3.00;;;;;;;;;;5089537;28;20090;-74
2023/07/20 10:23:31;;;;;;;6.13;2.40;;;;;;;;;;5089626;28;20028;-73
2023/07/20 10:25:57;;;;;;;1.45;1.35;;;;;;;;;;5090480;28;20062;-73
2023/07/20 10:28:24;;;;;;;1.10;1.05;;;;;;;;;;5089753;28;20035;-74
2023/07/20 10:30:49;;;;;;;0.80;0.80;;;;;;;;;;5089513;28;20047;-73
2023/07/20 10:33:16;;;;;;;0.80;0.80;;;;;;;;;;5087926;28;20040;-73
2023/07/20 10:35:55;;;;;;;4.40;2.38;;;;;;;;;;5072046;28;20035;-73
2023/07/20 10:38:38;;;;;;;1.08;0.90;;;;;;;;;;5069293;28;20047;-74
2023/07/20 10:41:03;;;;;;;2.10;1.92;;;;;;;;;;5069547;28;20047;-73
2023/07/20 10:43:30;;;;;;;10.82;2.67;;;;;;;;;;5069218;28;20032;-73
2023/07/20 10:45:55;;;;;;;4.68;2.38;;;;;;;;;;5069223;28;20029;-74
2023/07/20 10:48:22;;;;;;;4.53;4.07;;;;;;;;;;5072549;28;20078;-73
2023/07/20 10:51:06;;;;;;;2.15;2.05;;;;;;;;;;5068700;28;20360;-73
2023/07/20 10:53:32;;;;;;;0.90;0.90;;;;;;;;;;5085893;28;20078;-74
2023/07/20 10:56:08;;;;;;;6.15;2.63;;;;;;;;;;5069982;28;20024;-74
2023/07/20 10:58:33;;;;;;;2.00;1.80;;;;;;;;;;5071695;28;20099;-75
2023/07/20 11:01:03;;;;;;;0.52;0.52;;;;;;;;;;5071109;28;20116;-74
2023/07/20 11:03:30;;;;;;;2.30;1.95;;;;;;;;;;5087978;28;20036;-73
2023/07/20 11:05:56;;;;;;;2.88;1.35;;;;;;;;;;5068861;28;20053;-74
2023/07/20 11:08:48;;;;;;;7.43;3.50;;;;;;;;;;5069012;28;20017;-72
2023/07/20 11:11:26;;;;;;;6.47;3.13;;;;;;;;;;5076329;28;20092;-73
2023/07/20 11:13:55;;;;;;;2.63;1.83;;;;;;;;;;5078074;28;20383;-73
2023/07/20 11:16:31;;;;;;;16.45;3.53;;;;;;;;;;5067571;28;20115;-74
2023/07/20 11:18:57;;;;;;;1.55;0.82;;;;;;;;;;5069216;28;20051;-73
2023/07/20 11:21:22;;;;;;;1.23;1.13;;;;;;;;;;5071579;28;20399;-75
2023/07/20 11:23:48;;;;;;;0.70;0.70;;;;;;;;;;5082031;28;20043;-74
2023/07/20 11:26:13;;;;;;;6.88;4.20;;;;;;;;;;5075742;28;20035;-73
2023/07/20 11:28:39;;;;;;;2.50;1.90;;;;;;;;;;5050800;28;20052;-74
2023/07/20 11:31:04;;;;;;;4.88;2.45;;;;;;;;;;5069175;28;20589;-74
2023/07/20 11:33:29;;;;;;;5.80;1.98;;;;;;;;;;5070982;28;20020;-73
2023/07/20 11:35:55;;;;;;;11.45;4.13;;;;;;;;;;5070184;28;20017;-73
2023/07/20 11:38:20;;;;;;;4.65;2.30;;;;;;;;;;5068954;28;20028;-74
2023/07/20 11:40:46;;;;;;;1.65;1.55;;;;;;;;;;5049743;28;20034;-73
2023/07/20 11:43:14;;;;;;;2.40;1.85;;;;;;;;;;5069007;28;20032;-75
2023/07/20 11:45:40;;;;;;;7.28;1.90;;;;;;;;;;5068334;28;20471;-74
2023/07/20 11:48:05;;;;;;;6.47;4.13;;;;;;;;;;5080955;28;20039;-74
2023/07/20 11:50:31;;;;;;;6.45;2.67;;;;;;;;;;5088435;28;20378;-75
2023/07/20 11:52:57;;;;;;;4.50;2.92;;;;;;;;;;5069358;28;20056;-74
2023/07/20 11:55:22;;;;;;;1.40;0.90;;;;;;;;;;5082881;28;20241;-74
2023/07/20 11:58:07;;;;;;;0.60;0.60;;;;;;;;;;5070291;28;20038;-74
2023/07/20 12:00:33;;;;;;;0.60;0.60;;;;;;;;;;5088193;28;20089;-74
2023/07/20 12:02:59;;;;;;;3.22;1.52;;;;;;;;;;5088397;28;20471;-74
2023/07/20 12:05:25;;;;;;;2.28;1.55;;;;;;;;;;5088321;28;20024;-74
2023/07/20 12:07:52;;;;;;;2.40;1.70;;;;;;;;;;5088242;28;20038;-74
2023/07/20 12:10:23;;;;;;;1.45;1.35;;;;;;;;;;5088380;28;20036;-73
2023/07/20 12:12:48;;;;;;;9.98;4.30;;;;;;;;;;5088111;28;20395;-73
2023/07/20 12:15:14;;;;;;;1.95;1.63;;;;;;;;;;5088129;28;20032;-72
2023/07/20 12:17:43;;;;;;;4.63;2.35;;;;;;;;;;5088560;28;20036;-74
2023/07/20 12:20:09;;;;;;;7.72;3.83;;;;;;;;;;5087764;28;20082;-74
2023/07/20 12:22:43;;;;;;;0.63;0.63;;;;;;;;;;5087553;28;20039;-75
2023/07/20 12:25:09;;;;;;;3.22;2.92;;;;;;;;;;5088117;28;20552;-74
2023/07/20 12:27:37;;;;;;;1.80;1.67;;;;;;;;;;5079766;28;20032;-74
2023/07/20 12:30:04;;;;;;;;;;;;;;;;;;5073533;28;20028;-74
2023/07/20 12:32:29;;;;;;;6.50;2.83;;;;;;;;;;5070662;28;19912;-75
2023/07/20 12:34:55;;;;;;;5.57;2.65;;;;;;;;;;5073779;28;20036;-75
2023/07/20 12:37:20;;;;;;;1.75;0.70;;;;;;;;;;5076168;28;20082;-73
2023/07/20 12:39:47;;;;;;;3.80;2.00;;;;;;;;;;5071703;28;20093;-74
2023/07/20 12:42:12;;;;;;;1.20;1.10;;;;;;;;;;5088406;28;20796;-74
2023/07/20 12:44:38;;;;;;;2.72;1.55;;;;;;;;;;5090593;28;20081;-75
2023/07/20 12:47:03;;;;;;;1.40;1.10;;;;;;;;;;5082828;28;20036;-74
2023/07/20 12:49:28;;;;;;;3.05;2.70;;;;;;;;;;5081389;28;20266;-74
2023/07/20 12:51:54;;;;;;;1.58;1.27;;;;;;;;;;5091217;28;20569;-73
2023/07/20 12:54:20;;;;;;;2.13;1.63;;;;;;;;;;5091846;28;20391;-73
2023/07/20 12:56:45;;;;;;;1.58;1.27;;;;;;;;;;5085155;28;20125;-74
2023/07/20 12:59:10;;;;;;;6.97;3.70;;;;;;;;;;5062757;28;20413;-74
2023/07/20 13:01:37;;;;;;;14.60;3.72;;;;;;;;;;5081553;28;20028;-73
2023/07/20 13:04:03;;;;;;;1.30;1.17;;;;;;;;;;5089099;28;20047;-74
2023/07/20 13:06:28;;;;;;;2.50;2.03;;;;;;;;;;5088906;28;20028;-73
2023/07/20 13:08:56;;;;;;;6.55;2.90;;;;;;;;;;5089141;28;20020;-73
2023/07/20 13:11:22;;;;;;;7.97;3.70;;;;;;;;;;5071743;28;20131;-74
2023/07/20 13:13:47;;;;;;;3.50;2.05;;;;;;;;;;5091354;28;20150;-75
2023/07/20 13:16:14;;;;;;;5.65;1.83;;;;;;;;;;5090702;28;20104;-74
2023/07/20 13:18:40;;;;;;;2.28;1.77;;;;;;;;;;5089663;28;20036;-76
2023/07/20 13:42:05;;;;;;;6.85;3.83;;;;;;;;;;5134366;27;20210;-69
2023/07/20 13:44:30;;;;;;;5.07;3.10;;;;;;;;;;5124859;28;20122;-67
2023/07/20 13:54:01;;;;;;;1.80;1.55;;;;;;;;;;5116165;27;20187;-70
2023/07/20 13:56:27;;;;;;;3.15;2.20;;;;;;;;;;5115121;27;20051;-69
2023/07/20 14:11:37;;;;;;;1.20;0.82;;;;;;;;;;5128401;27;20167;-75
2023/07/20 14:14:03;;;;;;;1.08;0.90;;;;;;;;;;5124334;27;20066;-75
2023/07/20 14:16:28;;;;;;;7.22;3.05;;;;;;;;;;5124909;28;20020;-75
2023/07/20 14:18:53;;;;;;;3.40;2.42;;;;;;;;;;5113963;27;20498;-75
2023/07/20 14:21:19;;;;;;;4.32;2.92;;;;;;;;;;5101352;28;20039;-75
2023/07/20 14:23:46;;;;;;;0.75;0.75;;;;;;;;;;5125562;28;20343;-77
2023/07/20 14:26:11;;;;;;;3.22;2.05;;;;;;;;;;5123232;27;20115;-74
2023/07/20 14:28:37;;;;;;;3.75;2.05;;;;;;;;;;5125039;28;20086;-75
2023/07/20 14:31:03;;;;;;;0.52;0.52;;;;;;;;;;5123714;28;20047;-72
2023/07/20 14:33:28;;;;;;;2.00;1.50;;;;;;;;;;5123431;28;20476;-75
2023/07/20 14:35:54;;;;;;;3.97;2.70;;;;;;;;;;5115845;28;20054;-73
2023/07/20 14:38:19;;;;;;;5.63;2.65;;;;;;;;;;5068558;28;20059;-74
2023/07/20 14:40:45;;;;;;;2.38;1.90;;;;;;;;;;5104292;28;20042;-73
2023/07/20 14:43:11;;;;;;;1.00;0.93;;;;;;;;;;5115397;27;20035;-72
2023/07/20 14:45:38;;;;;;;0.70;0.70;;;;;;;;;;5123760;28;20469;-75
2023/07/20 14:48:03;;;;;;;0.55;0.55;;;;;;;;;;5115931;28;20031;-75
2023/07/20 14:50:29;;;;;;;7.20;3.58;;;;;;;;;;5111160;28;20481;-75
2023/07/20 14:52:54;;;;;;;2.90;2.70;;;;;;;;;;5120285;27;20504;-74
2023/07/20 14:55:20;;;;;;;5.18;2.15;;;;;;;;;;5124657;28;20444;-74
2023/07/20 14:57:45;;;;;;;2.15;1.95;;;;;;;;;;5124804;28;20110;-74
2023/07/20 15:00:11;;;;;;;0.88;0.88;;;;;;;;;;5105926;28;20039;-74
2023/07/20 15:02:37;;;;;;;9.43;2.85;;;;;;;;;;5122481;27;20028;-73
2023/07/20 15:05:02;;;;;;;5.55;2.55;;;;;;;;;;5096464;28;20027;-76
2023/07/20 15:07:28;;;;;;;1.25;1.13;;;;;;;;;;5111694;28;20064;-78
2023/07/20 15:09:53;;;;;;;0.40;0.40;;;;;;;;;;5102402;28;20036;-76
2023/07/20 15:12:18;;;;;;;0.50;0.50;;;;;;;;;;5094670;28;20032;-73
2023/07/20 15:15:01;;;;;;;2.95;1.55;;;;;;;;;;5111068;28;20035;-77
2023/07/20 15:17:30;;;;;;;3.58;1.98;;;;;;;;;;5123498;27;20498;-79
2023/07/20 15:19:55;;;;;;;1.35;1.25;;;;;;;;;;5093886;28;20016;-76
2023/07/20 15:22:21;;;;;;;0.60;0.60;;;;;;;;;;5092987;28;20447;-75
2023/07/20 15:24:47;;;;;;;1.83;1.70;;;;;;;;;;5089787;28;20035;-76